General Pedro Jose Mendez International Airport
MMCV : now visible

Airfield :











YOU CAN JOIN US ON...

 
LOGIN :

Register | Disclaimer

   EN    FR    IT 

 









Legend :    VFR   Marginal VFR   IFR   Intensive IFR   Very Intensive IFR
Visi :
Ceiling :
>= 8 km
>= 3000ft
5 to 8 km
1000 to 3000 ft
1500m to 5 km
500 to 1000 ft
800 to 1500m
200 to 500 ft
< 800m
< 200 ft
Symbols :   Thunderstorms  Fog  Heavy snow  Heavy precipitations  Wind > 20 kt






- Airport Elevation : 761 ft
- IATA code : CVM


MMCV - General Pedro Jose Mendez International

CURRENT METAR :
  • 030040Z 15008KT 6SM OVC100 32/18 A2970 RMK 8/01/ HZY

EXPIRED METARs :
  • 022241Z 14012KT 5SM OVC100 34/18 A2968 RMK 8/01/ HZ

TAF TAF MMCV
Valid from the 02 at 18:00 until the 03 at 18:00 UTC


021709Z 0218/0318 16015G25KT 5SM BLDU SCT080
FM022100 16015KT 6SM HZ SCT030
BECMG 0301/0302 16010KT SCT020 BKN220
FM031000 16008KT 5SM HZ BKN020
TEMPO 0311/0315 3SM BR HZ OVC015
FM031600 16015KT 6SM HZ BKN020



MET'MAP, your aeronautical weather chart ! - Copyright ORBIFLY December 2007 - Disclaimer

ORBIFLY MET'MAP TEAM :

Programming & Development : Alexandra Zaïnal
Concept & original design : Baudouin d'Aumeries
Assistance for programming : Marc-Olivier Méhu
Technical & hardware support : Manuel Goepfert

Contact : metmap@orbifly.com




SOURCES & CREDITS :

   NOAA       Earth
Advisory